Time;durP1;ratioP1;P1;durP2;ratioP2;P2;SDS_P1;SDS_P2;PMS_P1;PMS_P2;Temp;Humidity;BMP_temperature;BMP_pressure;BME280_temperature;BME280_humidity;BME280_pressure;Samples;Min_cycle;Max_cycle;Signal;HPM_P1;HPM_P2
2022/11/24 00:02:03;;;;;;;3.63;1.20;;;;;;;;;;5101024;28;20020;-83
2022/11/24 00:04:29;;;;;;;5.72;1.35;;;;;;;;;;5103881;28;20503;-81
2022/11/24 00:06:55;;;;;;;6.28;1.17;;;;;;;;;;5103273;28;20107;-83
2022/11/24 00:09:21;;;;;;;3.88;1.10;;;;;;;;;;5080738;28;20064;-81
2022/11/24 00:11:47;;;;;;;5.43;1.38;;;;;;;;;;5082710;28;20035;-81
2022/11/24 00:14:13;;;;;;;6.45;1.52;;;;;;;;;;5082647;28;20044;-84
2022/11/24 00:16:39;;;;;;;4.95;1.40;;;;;;;;;;5080763;28;20070;-84
2022/11/24 00:19:08;;;;;;;4.25;2.30;;;;;;;;;;5087254;28;20035;-84
2022/11/24 00:21:34;;;;;;;4.85;1.30;;;;;;;;;;5105696;28;20028;-83
2022/11/24 00:24:00;;;;;;;5.30;1.17;;;;;;;;;;5085156;28;20114;-83
2022/11/24 00:26:27;;;;;;;7.50;1.45;;;;;;;;;;5084916;28;20047;-82
2022/11/24 00:28:54;;;;;;;12.80;2.90;;;;;;;;;;5085933;28;20095;-83
2022/11/24 00:31:24;;;;;;;6.82;2.03;;;;;;;;;;5103049;28;20382;-83
2022/11/24 00:33:51;;;;;;;5.18;1.08;;;;;;;;;;5104198;28;20050;-83
2022/11/24 00:36:18;;;;;;;5.78;1.23;;;;;;;;;;5104629;28;20020;-83
2022/11/24 00:38:44;;;;;;;6.03;1.55;;;;;;;;;;5103393;28;20012;-82
2022/11/24 00:41:11;;;;;;;8.75;1.52;;;;;;;;;;5101948;28;20027;-83
2022/11/24 00:43:37;;;;;;;5.82;1.38;;;;;;;;;;5101858;28;20081;-81
2022/11/24 00:46:03;;;;;;;13.93;2.05;;;;;;;;;;5101120;28;20046;-83
2022/11/24 00:48:29;;;;;;;8.48;1.52;;;;;;;;;;5102391;28;20047;-83
2022/11/24 00:51:00;;;;;;;6.95;1.15;;;;;;;;;;5080621;28;20104;-83
2022/11/24 00:53:26;;;;;;;6.10;1.15;;;;;;;;;;5082178;28;20120;-83
2022/11/24 00:55:52;;;;;;;5.63;1.00;;;;;;;;;;5081708;28;20081;-82
2022/11/24 00:58:18;;;;;;;3.78;1.00;;;;;;;;;;5080292;28;20042;-82
2022/11/24 01:00:44;;;;;;;4.47;1.10;;;;;;;;;;5099192;28;20059;-82
2022/11/24 01:03:12;;;;;;;7.68;1.23;;;;;;;;;;5101586;28;20028;-82
2022/11/24 01:05:38;;;;;;;6.72;1.30;;;;;;;;;;5101842;28;20035;-82
2022/11/24 01:08:04;;;;;;;6.00;1.38;;;;;;;;;;5103518;28;20496;-81
2022/11/24 01:10:31;;;;;;;6.80;1.58;;;;;;;;;;5103940;28;20028;-82
2022/11/24 01:12:57;;;;;;;4.47;1.30;;;;;;;;;;5085456;28;20028;-82
2022/11/24 01:15:23;;;;;;;6.10;1.23;;;;;;;;;;5102302;28;20024;-82
2022/11/24 01:17:49;;;;;;;4.57;1.20;;;;;;;;;;5101159;28;20020;-81
2022/11/24 01:20:15;;;;;;;3.83;1.30;;;;;;;;;;5101818;28;20093;-82
2022/11/24 01:22:41;;;;;;;5.57;1.35;;;;;;;;;;5101298;28;20020;-82
2022/11/24 01:25:08;;;;;;;2.88;1.10;;;;;;;;;;5084061;28;20148;-81
2022/11/24 01:27:34;;;;;;;8.90;1.20;;;;;;;;;;5101083;28;20169;-82
2022/11/24 01:30:00;;;;;;;5.25;1.42;;;;;;;;;;5092040;28;20461;-83
2022/11/24 01:32:26;;;;;;;4.40;1.02;;;;;;;;;;5099179;28;20397;-82
2022/11/24 01:34:53;;;;;;;7.07;1.15;;;;;;;;;;5101069;28;20038;-82
2022/11/24 01:37:19;;;;;;;5.53;1.40;;;;;;;;;;5100199;28;20062;-83
2022/11/24 01:39:45;;;;;;;8.68;1.50;;;;;;;;;;5083334;28;20027;-83
2022/11/24 01:42:11;;;;;;;4.72;1.02;;;;;;;;;;5101311;28;20020;-83
2022/11/24 01:44:37;;;;;;;5.55;1.48;;;;;;;;;;5101711;28;20073;-83
2022/11/24 01:47:14;;;;;;;5.68;1.13;;;;;;;;;;5101175;28;20031;-84
2022/11/24 01:49:45;;;;;;;7.30;1.33;;;;;;;;;;5102383;28;20062;-82
2022/11/24 01:52:23;;;;;;;2.35;1.00;;;;;;;;;;5112502;28;20035;-78
2022/11/24 01:54:52;;;;;;;6.82;1.15;;;;;;;;;;5117416;28;20020;-79
2022/11/24 01:57:21;;;;;;;4.97;1.20;;;;;;;;;;5116120;28;20044;-80
2022/11/24 01:59:50;;;;;;;2.20;0.88;;;;;;;;;;5094278;28;20044;-82
2022/11/24 02:02:17;;;;;;;5.80;1.40;;;;;;;;;;5097552;28;20028;-80
2022/11/24 02:04:43;;;;;;;6.03;1.20;;;;;;;;;;5104789;28;20032;-83
2022/11/24 02:07:11;;;;;;;5.35;1.30;;;;;;;;;;5102411;28;20039;-83
2022/11/24 02:09:41;;;;;;;5.97;0.90;;;;;;;;;;5101191;28;20071;-83
2022/11/24 02:12:08;;;;;;;4.97;1.38;;;;;;;;;;5100765;28;20024;-83
2022/11/24 02:14:34;;;;;;;4.13;0.82;;;;;;;;;;5084433;28;20053;-82
2022/11/24 02:17:00;;;;;;;19.08;2.25;;;;;;;;;;5100885;28;20093;-82
2022/11/24 02:19:47;;;;;;;2.05;0.85;;;;;;;;;;5100715;28;20024;-82
2022/11/24 02:22:32;;;;;;;5.28;0.90;;;;;;;;;;5102095;28;20031;-82
2022/11/24 02:24:58;;;;;;;8.35;1.20;;;;;;;;;;5100881;28;20035;-82
2022/11/24 02:27:24;;;;;;;3.20;0.80;;;;;;;;;;5100091;28;20081;-82
2022/11/24 02:29:50;;;;;;;3.35;0.68;;;;;;;;;;5100008;28;20028;-82
2022/11/24 02:32:16;;;;;;;5.32;0.77;;;;;;;;;;5092393;28;20025;-83
2022/11/24 02:34:42;;;;;;;2.38;0.80;;;;;;;;;;5107003;28;20019;-79
2022/11/24 02:37:08;;;;;;;4.25;0.90;;;;;;;;;;5109092;28;20036;-83
2022/11/24 02:39:34;;;;;;;2.28;0.73;;;;;;;;;;5111691;28;20072;-80
2022/11/24 02:42:02;;;;;;;7.57;1.02;;;;;;;;;;5109179;28;20028;-83
2022/11/24 02:44:30;;;;;;;2.28;0.75;;;;;;;;;;5091258;28;20044;-83
2022/11/24 02:47:03;;;;;;;1.42;0.70;;;;;;;;;;5080794;28;20030;-83
2022/11/24 02:49:29;;;;;;;2.95;0.73;;;;;;;;;;5082395;28;20033;-79
2022/11/24 02:51:55;;;;;;;3.90;0.75;;;;;;;;;;5082493;28;20602;-83
2022/11/24 02:54:22;;;;;;;2.10;0.43;;;;;;;;;;5085443;28;20488;-83
2022/11/24 02:56:47;;;;;;;2.83;0.68;;;;;;;;;;5099915;28;20028;-82
2022/11/24 02:59:13;;;;;;;3.90;0.70;;;;;;;;;;5100532;28;20028;-82
2022/11/24 03:01:39;;;;;;;1.95;0.52;;;;;;;;;;5095021;28;20025;-82
2022/11/24 03:04:05;;;;;;;2.03;0.68;;;;;;;;;;5080006;28;20036;-82
2022/11/24 03:06:31;;;;;;;3.35;0.80;;;;;;;;;;5099169;28;20036;-81
2022/11/24 03:08:57;;;;;;;1.50;0.50;;;;;;;;;;5103135;28;20093;-81
2022/11/24 03:11:23;;;;;;;1.27;0.40;;;;;;;;;;5100035;28;20032;-82
2022/11/24 03:13:49;;;;;;;0.88;0.32;;;;;;;;;;5100288;28;20024;-82
2022/11/24 03:16:15;;;;;;;2.13;0.75;;;;;;;;;;5098258;28;20424;-82
2022/11/24 03:18:41;;;;;;;3.55;0.73;;;;;;;;;;5100878;28;20036;-82
2022/11/24 03:21:07;;;;;;;1.58;0.40;;;;;;;;;;5098144;28;20020;-81
2022/11/24 03:23:34;;;;;;;2.10;0.50;;;;;;;;;;5077781;28;20051;-81
2022/11/24 03:26:14;;;;;;;2.03;0.73;;;;;;;;;;5099610;28;20473;-83
2022/11/24 03:28:40;;;;;;;1.52;0.47;;;;;;;;;;5082871;28;20585;-82
2022/11/24 03:31:06;;;;;;;4.03;0.60;;;;;;;;;;5099483;28;20031;-82
2022/11/24 03:33:33;;;;;;;2.03;0.52;;;;;;;;;;5081775;28;20111;-84
2022/11/24 03:35:59;;;;;;;1.58;0.50;;;;;;;;;;5089273;28;20043;-82
2022/11/24 03:38:25;;;;;;;3.80;0.50;;;;;;;;;;5101018;28;20056;-82
2022/11/24 03:40:51;;;;;;;1.10;0.40;;;;;;;;;;5102108;28;20164;-82
2022/11/24 03:43:17;;;;;;;2.95;0.63;;;;;;;;;;5101429;28;20051;-82
2022/11/24 03:45:46;;;;;;;4.35;0.57;;;;;;;;;;5100003;28;20055;-82
2022/11/24 03:48:13;;;;;;;1.40;0.50;;;;;;;;;;5100771;28;20039;-83
2022/11/24 03:50:39;;;;;;;2.20;0.32;;;;;;;;;;5099511;28;20353;-81
2022/11/24 03:53:04;;;;;;;3.47;0.70;;;;;;;;;;5103133;28;20028;-82
2022/11/24 03:55:30;;;;;;;1.25;0.40;;;;;;;;;;5107039;28;20031;-82
2022/11/24 03:57:56;;;;;;;3.03;0.50;;;;;;;;;;5103491;28;20031;-82
2022/11/24 04:00:22;;;;;;;1.13;0.50;;;;;;;;;;5085030;28;20036;-82
2022/11/24 04:02:48;;;;;;;2.20;0.57;;;;;;;;;;5091984;28;20029;-83
2022/11/24 04:05:15;;;;;;;2.08;0.52;;;;;;;;;;5085877;28;20025;-81
2022/11/24 04:07:41;;;;;;;4.90;0.85;;;;;;;;;;5088237;28;20028;-81
2022/11/24 04:10:07;;;;;;;1.60;0.70;;;;;;;;;;5097802;28;20228;-81
2022/11/24 04:12:45;;;;;;;1.42;0.57;;;;;;;;;;5096627;28;20027;-80
2022/11/24 04:15:12;;;;;;;2.90;0.68;;;;;;;;;;5083930;28;20101;-80
2022/11/24 04:17:38;;;;;;;0.63;0.50;;;;;;;;;;5096972;28;20032;-80
2022/11/24 04:20:05;;;;;;;2.28;0.40;;;;;;;;;;5117038;28;20007;-81
2022/11/24 04:22:31;;;;;;;2.33;0.40;;;;;;;;;;5117553;28;20035;-82
2022/11/24 04:24:57;;;;;;;2.15;0.50;;;;;;;;;;5100730;28;20050;-80
2022/11/24 04:27:23;;;;;;;3.03;0.43;;;;;;;;;;5100827;28;20024;-80
2022/11/24 04:29:49;;;;;;;0.73;0.43;;;;;;;;;;5081743;28;20024;-81
2022/11/24 04:32:16;;;;;;;1.83;0.70;;;;;;;;;;5069830;28;20029;-81
2022/11/24 04:34:42;;;;;;;5.03;0.80;;;;;;;;;;5073110;28;20036;-81
2022/11/24 04:37:09;;;;;;;2.83;0.70;;;;;;;;;;5091771;28;20052;-81
2022/11/24 04:39:34;;;;;;;4.20;0.85;;;;;;;;;;5085839;28;20025;-82
2022/11/24 04:42:01;;;;;;;3.90;0.60;;;;;;;;;;5080131;28;20371;-82
2022/11/24 04:44:27;;;;;;;1.98;0.55;;;;;;;;;;5080287;28;20033;-82
2022/11/24 04:46:53;;;;;;;2.08;0.77;;;;;;;;;;5079591;28;20029;-82
2022/11/24 04:49:19;;;;;;;1.75;0.38;;;;;;;;;;5095316;28;20032;-82
2022/11/24 04:51:45;;;;;;;4.18;0.52;;;;;;;;;;5105631;28;20176;-82
2022/11/24 04:54:12;;;;;;;3.42;0.60;;;;;;;;;;5101310;28;20031;-82
2022/11/24 04:56:38;;;;;;;2.58;0.73;;;;;;;;;;5098702;28;20043;-82
2022/11/24 04:59:04;;;;;;;2.67;0.82;;;;;;;;;;5099751;28;20012;-81
2022/11/24 05:01:30;;;;;;;3.25;1.02;;;;;;;;;;5097688;28;20104;-82
2022/11/24 05:03:57;;;;;;;4.88;1.00;;;;;;;;;;5100554;28;20024;-82
2022/11/24 05:06:23;;;;;;;3.15;0.45;;;;;;;;;;5102098;28;20099;-83
2022/11/24 05:08:50;;;;;;;3.80;0.65;;;;;;;;;;5100390;28;20071;-81
2022/11/24 05:11:16;;;;;;;4.78;0.70;;;;;;;;;;5099185;28;20107;-81
2022/11/24 05:13:42;;;;;;;6.82;0.90;;;;;;;;;;5080948;28;20020;-81
2022/11/24 05:16:08;;;;;;;7.45;0.75;;;;;;;;;;5098183;28;20031;-81
2022/11/24 05:18:34;;;;;;;2.15;0.70;;;;;;;;;;5100078;28;20033;-80
2022/11/24 05:21:00;;;;;;;5.82;1.10;;;;;;;;;;5099380;28;20031;-81
2022/11/24 05:23:27;;;;;;;5.28;1.30;;;;;;;;;;5099352;28;20392;-81
2022/11/24 05:25:53;;;;;;;2.13;0.77;;;;;;;;;;5099257;28;20028;-81
2022/11/24 05:28:19;;;;;;;2.97;1.05;;;;;;;;;;5098869;28;20031;-82
2022/11/24 05:30:45;;;;;;;2.92;0.90;;;;;;;;;;5085233;28;20040;-82
2022/11/24 05:33:19;;;;;;;3.83;0.90;;;;;;;;;;5101182;28;20027;-83
2022/11/24 05:35:50;;;;;;;2.65;0.93;;;;;;;;;;5100832;28;20161;-84
2022/11/24 05:38:17;;;;;;;5.00;1.70;;;;;;;;;;5111460;28;20028;-82
2022/11/24 05:40:43;;;;;;;8.70;1.40;;;;;;;;;;5110708;28;20046;-83
2022/11/24 05:43:10;;;;;;;2.88;1.00;;;;;;;;;;5101853;28;20036;-83
2022/11/24 05:45:37;;;;;;;6.13;1.17;;;;;;;;;;5103056;28;20054;-82
2022/11/24 05:48:04;;;;;;;5.88;1.42;;;;;;;;;;5108355;28;20078;-81
2022/11/24 05:50:30;;;;;;;3.33;1.10;;;;;;;;;;5079383;28;20116;-83
2022/11/24 05:52:56;;;;;;;5.60;1.17;;;;;;;;;;5079066;28;20468;-82
2022/11/24 05:55:22;;;;;;;9.50;1.38;;;;;;;;;;5082327;28;20111;-82
2022/11/24 05:57:48;;;;;;;4.85;1.02;;;;;;;;;;5101582;28;20130;-83
2022/11/24 06:00:16;;;;;;;10.45;1.38;;;;;;;;;;5102291;28;20032;-83
2022/11/24 06:02:42;;;;;;;7.90;1.40;;;;;;;;;;5102184;28;20031;-82
2022/11/24 06:05:08;;;;;;;5.97;2.08;;;;;;;;;;5083165;28;20370;-82
2022/11/24 06:07:34;;;;;;;6.05;1.58;;;;;;;;;;5107022;28;20063;-83
2022/11/24 06:10:00;;;;;;;6.07;1.13;;;;;;;;;;5096332;28;20038;-82
2022/11/24 06:12:27;;;;;;;5.28;1.52;;;;;;;;;;5111677;28;20084;-83
2022/11/24 06:14:53;;;;;;;5.45;1.55;;;;;;;;;;5100861;28;20032;-83
2022/11/24 06:17:18;;;;;;;7.82;1.38;;;;;;;;;;5102605;28;20135;-83
2022/11/24 06:19:48;;;;;;;7.57;1.27;;;;;;;;;;5115681;28;20020;-82
2022/11/24 06:22:14;;;;;;;8.25;1.50;;;;;;;;;;5106461;28;20024;-83
2022/11/24 06:24:40;;;;;;;6.57;1.35;;;;;;;;;;5102744;28;20084;-83
2022/11/24 06:27:07;;;;;;;6.05;1.05;;;;;;;;;;5101506;28;20024;-83
2022/11/24 06:29:33;;;;;;;6.65;1.25;;;;;;;;;;5101846;28;20001;-83
2022/11/24 06:31:59;;;;;;;6.47;1.33;;;;;;;;;;5101690;28;20093;-83
2022/11/24 06:34:25;;;;;;;11.57;2.30;;;;;;;;;;5106041;28;20020;-82
2022/11/24 06:36:51;;;;;;;3.88;1.50;;;;;;;;;;5098146;28;20473;-83
2022/11/24 06:39:17;;;;;;;4.88;1.42;;;;;;;;;;5107603;28;20029;-83
2022/11/24 06:41:43;;;;;;;7.25;1.95;;;;;;;;;;5103771;28;20024;-83
2022/11/24 06:44:09;;;;;;;6.05;1.35;;;;;;;;;;5102025;28;20031;-82
2022/11/24 06:46:35;;;;;;;7.95;2.05;;;;;;;;;;5102696;28;20024;-81
2022/11/24 06:49:01;;;;;;;5.25;1.20;;;;;;;;;;5102292;28;20024;-82
2022/11/24 06:51:27;;;;;;;6.00;1.83;;;;;;;;;;5100437;28;20118;-83
2022/11/24 06:53:53;;;;;;;6.22;1.50;;;;;;;;;;5100753;28;20024;-82
2022/11/24 06:56:20;;;;;;;8.50;1.95;;;;;;;;;;5079345;28;20369;-83
2022/11/24 06:58:47;;;;;;;5.25;1.40;;;;;;;;;;5082915;28;20104;-83
2022/11/24 07:01:19;;;;;;;4.25;1.30;;;;;;;;;;5099348;28;20099;-83
2022/11/24 07:03:45;;;;;;;8.15;1.65;;;;;;;;;;5102721;28;20020;-83
2022/11/24 07:06:11;;;;;;;8.93;1.67;;;;;;;;;;5079314;28;20029;-83
2022/11/24 07:08:37;;;;;;;5.70;1.52;;;;;;;;;;5081018;28;20023;-83
2022/11/24 07:11:04;;;;;;;9.00;3.30;;;;;;;;;;5092126;28;20066;-83
2022/11/24 07:13:30;;;;;;;9.32;1.77;;;;;;;;;;5083335;28;20040;-83
2022/11/24 07:15:56;;;;;;;8.27;2.75;;;;;;;;;;5101910;28;20043;-85
2022/11/24 07:18:22;;;;;;;7.63;1.60;;;;;;;;;;5101248;28;20020;-84
2022/11/24 07:20:48;;;;;;;6.95;1.58;;;;;;;;;;5100391;28;20017;-83
2022/11/24 07:23:15;;;;;;;7.03;1.17;;;;;;;;;;5100926;28;20020;-84
2022/11/24 07:25:41;;;;;;;10.43;1.73;;;;;;;;;;5086487;28;20070;-83
2022/11/24 07:28:07;;;;;;;9.10;2.03;;;;;;;;;;5104543;28;20025;-83
2022/11/24 07:30:33;;;;;;;6.22;1.80;;;;;;;;;;5104857;28;20107;-83
2022/11/24 07:32:59;;;;;;;8.20;1.52;;;;;;;;;;5104396;28;20488;-83
2022/11/24 07:35:26;;;;;;;8.85;2.08;;;;;;;;;;5104418;28;20032;-83
2022/11/24 07:37:56;;;;;;;8.43;1.80;;;;;;;;;;5102937;28;20027;-83
2022/11/24 07:40:23;;;;;;;9.88;2.22;;;;;;;;;;5103681;28;20032;-83
2022/11/24 07:42:49;;;;;;;10.05;2.20;;;;;;;;;;5106385;28;20024;-82
2022/11/24 07:45:15;;;;;;;9.55;1.83;;;;;;;;;;5086762;28;20050;-81
2022/11/24 07:47:41;;;;;;;8.70;1.75;;;;;;;;;;5094207;28;20024;-82
2022/11/24 07:50:11;;;;;;;7.93;2.13;;;;;;;;;;5118574;28;20040;-82
2022/11/24 07:52:37;;;;;;;11.25;2.22;;;;;;;;;;5118692;28;20040;-82
2022/11/24 07:55:04;;;;;;;9.48;1.50;;;;;;;;;;5118334;28;20023;-82
2022/11/24 07:57:30;;;;;;;8.75;1.90;;;;;;;;;;5118482;28;20032;-82
2022/11/24 07:59:56;;;;;;;16.58;2.05;;;;;;;;;;5107835;28;20123;-83
2022/11/24 08:02:22;;;;;;;13.77;2.10;;;;;;;;;;5105356;28;20046;-83
2022/11/24 08:04:48;;;;;;;13.63;1.83;;;;;;;;;;5104061;28;20063;-83
2022/11/24 08:07:14;;;;;;;5.47;1.60;;;;;;;;;;5086532;28;20118;-82
2022/11/24 08:09:40;;;;;;;7.85;1.30;;;;;;;;;;5103462;28;20056;-83
2022/11/24 08:12:06;;;;;;;8.55;1.90;;;;;;;;;;5087580;28;20109;-83
2022/11/24 08:14:32;;;;;;;14.10;1.77;;;;;;;;;;5106976;28;20032;-83
2022/11/24 08:16:58;;;;;;;9.20;1.98;;;;;;;;;;5087383;28;20104;-83
2022/11/24 08:19:24;;;;;;;11.02;1.77;;;;;;;;;;5089249;28;20027;-83
2022/11/24 08:21:50;;;;;;;11.93;2.88;;;;;;;;;;5104329;28;20028;-83
2022/11/24 08:24:16;;;;;;;7.60;1.40;;;;;;;;;;5107170;28;20039;-83
2022/11/24 08:26:42;;;;;;;8.63;2.55;;;;;;;;;;5105834;28;20032;-82
2022/11/24 08:29:09;;;;;;;9.65;1.98;;;;;;;;;;5106494;28;20039;-82
2022/11/24 08:31:37;;;;;;;4.88;1.23;;;;;;;;;;5087518;28;20055;-85
2022/11/24 08:34:04;;;;;;;4.78;1.83;;;;;;;;;;5108825;28;20030;-83
2022/11/24 08:36:30;;;;;;;8.63;1.55;;;;;;;;;;5116354;28;20099;-83
2022/11/24 08:38:57;;;;;;;8.18;1.63;;;;;;;;;;5118371;28;20030;-81
2022/11/24 08:41:23;;;;;;;4.60;1.50;;;;;;;;;;5111692;28;20093;-81
2022/11/24 08:43:49;;;;;;;7.15;1.38;;;;;;;;;;5084397;28;20507;-83
2022/11/24 08:46:16;;;;;;;4.72;1.13;;;;;;;;;;5081936;28;20032;-83
2022/11/24 08:48:43;;;;;;;5.72;1.15;;;;;;;;;;5104013;28;20075;-83
2022/11/24 08:51:11;;;;;;;9.10;1.67;;;;;;;;;;5103723;28;20634;-83
2022/11/24 08:53:37;;;;;;;2.92;0.90;;;;;;;;;;5084888;28;20039;-83
2022/11/24 08:56:04;;;;;;;5.53;1.60;;;;;;;;;;5103123;28;20075;-83
2022/11/24 08:58:30;;;;;;;5.05;1.88;;;;;;;;;;5107802;28;20077;-83
2022/11/24 09:01:02;;;;;;;11.45;2.30;;;;;;;;;;5105327;28;20039;-85
2022/11/24 09:03:28;;;;;;;5.60;1.75;;;;;;;;;;5086819;28;20040;-83
2022/11/24 09:05:54;;;;;;;7.03;1.50;;;;;;;;;;5103007;28;20020;-81
2022/11/24 09:08:20;;;;;;;9.02;2.03;;;;;;;;;;5104500;28;20043;-82
2022/11/24 09:10:47;;;;;;;10.10;2.53;;;;;;;;;;5105938;28;20039;-82
2022/11/24 09:13:13;;;;;;;7.53;1.75;;;;;;;;;;5104937;28;20027;-83
2022/11/24 09:15:39;;;;;;;10.55;2.58;;;;;;;;;;5104297;28;20043;-83
2022/11/24 09:18:05;;;;;;;9.82;4.10;;;;;;;;;;5105818;28;20032;-83
2022/11/24 09:20:31;;;;;;;10.40;3.53;;;;;;;;;;5105607;28;20035;-82
2022/11/24 09:22:57;;;;;;;7.50;1.83;;;;;;;;;;5104620;28;20118;-82
2022/11/24 09:25:23;;;;;;;7.20;2.97;;;;;;;;;;5104726;28;20057;-83
2022/11/24 09:27:49;;;;;;;9.60;2.95;;;;;;;;;;5088037;28;20040;-83
2022/11/24 09:30:15;;;;;;;7.82;3.10;;;;;;;;;;5090102;28;20024;-82
2022/11/24 09:32:42;;;;;;;10.27;2.40;;;;;;;;;;5110663;28;20096;-82
2022/11/24 09:35:08;;;;;;;6.88;1.08;;;;;;;;;;5108477;28;20023;-83
2022/11/24 09:37:34;;;;;;;9.15;2.00;;;;;;;;;;5109059;28;20032;-82
2022/11/24 09:40:00;;;;;;;6.57;1.65;;;;;;;;;;5109011;28;20076;-83
2022/11/24 09:42:33;;;;;;;8.60;1.70;;;;;;;;;;5109052;28;20102;-83
2022/11/24 09:45:18;;;;;;;5.55;1.35;;;;;;;;;;5111298;28;20039;-82
2022/11/24 09:47:55;;;;;;;6.78;1.60;;;;;;;;;;5112975;28;20020;-83
2022/11/24 09:50:35;;;;;;;10.15;1.95;;;;;;;;;;5117708;28;20024;-83
2022/11/24 09:53:20;;;;;;;6.05;1.80;;;;;;;;;;5100094;28;20038;-82
2022/11/24 09:55:47;;;;;;;8.90;1.40;;;;;;;;;;5117718;28;20126;-83
2022/11/24 09:58:19;;;;;;;4.45;1.17;;;;;;;;;;5089227;28;20501;-83
2022/11/24 10:00:46;;;;;;;8.27;1.60;;;;;;;;;;5109372;28;20085;-82
2022/11/24 10:03:16;;;;;;;5.55;1.73;;;;;;;;;;5090672;28;20057;-82
2022/11/24 10:05:43;;;;;;;7.25;1.70;;;;;;;;;;5108506;28;20040;-84
2022/11/24 10:08:18;;;;;;;8.60;1.58;;;;;;;;;;5108346;28;20092;-81
2022/11/24 10:10:50;;;;;;;7.75;1.70;;;;;;;;;;5108107;28;20043;-83
2022/11/24 10:13:16;;;;;;;;;;;;;;;;;;5107299;28;20020;-82
2022/11/24 10:16:03;;;;;;;4.88;1.52;;;;;;;;;;5107803;28;19967;-82
2022/11/24 10:18:47;;;;;;;7.45;1.50;;;;;;;;;;5090893;28;20139;-83
2022/11/24 10:21:31;;;;;;;6.35;1.58;;;;;;;;;;5107522;28;20024;-82
2022/11/24 10:24:03;;;;;;;5.35;1.02;;;;;;;;;;5108489;28;20028;-82
2022/11/24 10:26:37;;;;;;;6.43;1.38;;;;;;;;;;5113408;28;20020;-82
2022/11/24 10:29:12;;;;;;;7.65;1.30;;;;;;;;;;5115865;28;20023;-81
2022/11/24 10:31:42;;;;;;;6.43;1.30;;;;;;;;;;5116016;28;20012;-82
2022/11/24 10:34:16;;;;;;;7.45;1.50;;;;;;;;;;5110712;28;20012;-83
2022/11/24 10:36:57;;;;;;;7.20;1.33;;;;;;;;;;5112473;28;20058;-83
2022/11/24 10:39:32;;;;;;;3.65;1.20;;;;;;;;;;5097640;28;20056;-83
2022/11/24 10:42:02;;;;;;;5.03;0.93;;;;;;;;;;5099054;28;20031;-83
2022/11/24 10:44:28;;;;;;;2.78;1.13;;;;;;;;;;5093579;28;20071;-83
2022/11/24 10:46:54;;;;;;;3.85;0.98;;;;;;;;;;5097067;28;20074;-83
2022/11/24 10:49:23;;;;;;;6.93;1.08;;;;;;;;;;5103339;28;20141;-82
2022/11/24 10:51:49;;;;;;;4.72;1.70;;;;;;;;;;5103104;28;20020;-82
2022/11/24 10:54:19;;;;;;;7.50;1.02;;;;;;;;;;5086186;28;20504;-83
2022/11/24 10:56:46;;;;;;;4.65;1.23;;;;;;;;;;5101535;28;20028;-83
2022/11/24 10:59:25;;;;;;;3.33;1.00;;;;;;;;;;5102531;28;20110;-81
2022/11/24 11:01:51;;;;;;;4.38;1.45;;;;;;;;;;5106910;28;20032;-84
2022/11/24 11:04:19;;;;;;;3.85;1.00;;;;;;;;;;5106747;28;20122;-83
2022/11/24 11:06:45;;;;;;;5.25;1.25;;;;;;;;;;5106106;28;20091;-81
2022/11/24 11:09:21;;;;;;;5.45;1.35;;;;;;;;;;5106224;28;20035;-83
2022/11/24 11:11:47;;;;;;;5.95;1.20;;;;;;;;;;5107239;28;20035;-83
2022/11/24 11:14:28;;;;;;;3.20;1.08;;;;;;;;;;5108519;28;20092;-83
2022/11/24 11:16:56;;;;;;;4.45;1.20;;;;;;;;;;5109275;28;20085;-83
2022/11/24 11:19:34;;;;;;;3.08;0.80;;;;;;;;;;5092149;28;20088;-83
2022/11/24 11:22:03;;;;;;;7.20;1.35;;;;;;;;;;5104471;28;20036;-83
2022/11/24 11:24:29;;;;;;;7.03;1.10;;;;;;;;;;5090441;28;20032;-82
2022/11/24 11:27:00;;;;;;;8.18;1.30;;;;;;;;;;5114403;28;20082;-82
2022/11/24 11:29:26;;;;;;;7.05;1.55;;;;;;;;;;5100809;28;20032;-83
2022/11/24 11:32:03;;;;;;;6.63;1.65;;;;;;;;;;5101946;28;20052;-83
2022/11/24 11:34:36;;;;;;;5.28;1.52;;;;;;;;;;5089909;28;20032;-83
2022/11/24 11:37:03;;;;;;;6.45;1.20;;;;;;;;;;5115499;28;20094;-84
2022/11/24 11:39:31;;;;;;;3.40;0.82;;;;;;;;;;5094165;28;20032;-83
2022/11/24 11:42:06;;;;;;;4.28;1.20;;;;;;;;;;5104687;28;20464;-83
2022/11/24 11:44:39;;;;;;;5.70;1.67;;;;;;;;;;5086223;28;20051;-83
2022/11/24 11:47:11;;;;;;;4.05;1.30;;;;;;;;;;5103868;28;20056;-83
2022/11/24 11:49:38;;;;;;;7.25;1.55;;;;;;;;;;5104936;28;20066;-82
2022/11/24 11:52:13;;;;;;;5.05;1.58;;;;;;;;;;5103796;28;20039;-82
2022/11/24 11:54:58;;;;;;;3.38;1.50;;;;;;;;;;5108477;28;20028;-82
2022/11/24 11:57:47;;;;;;;4.80;1.60;;;;;;;;;;5106756;28;20028;-84
2022/11/24 12:00:18;;;;;;;8.13;1.73;;;;;;;;;;5066625;28;20040;-83
2022/11/24 12:02:47;;;;;;;4.70;1.25;;;;;;;;;;5104802;28;20028;-83
2022/11/24 12:05:25;;;;;;;4.85;1.73;;;;;;;;;;5086814;28;20431;-83
2022/11/24 12:07:54;;;;;;;6.30;1.52;;;;;;;;;;5105526;28;20024;-84
2022/11/24 12:10:26;;;;;;;5.07;1.33;;;;;;;;;;5087479;28;20028;-83
2022/11/24 12:13:11;;;;;;;4.32;1.55;;;;;;;;;;5104128;28;20096;-82
2022/11/24 12:15:40;;;;;;;6.75;1.83;;;;;;;;;;5083255;28;20029;-83
2022/11/24 12:18:09;;;;;;;5.75;1.73;;;;;;;;;;5094793;28;20047;-83
2022/11/24 12:20:57;;;;;;;4.30;1.40;;;;;;;;;;5109441;28;20055;-83
2022/11/24 12:23:23;;;;;;;8.30;3.63;;;;;;;;;;5091202;28;20064;-83
2022/11/24 12:26:09;;;;;;;6.35;2.67;;;;;;;;;;5111036;28;20024;-84
2022/11/24 12:28:41;;;;;;;4.15;1.50;;;;;;;;;;5076465;28;20024;-84
2022/11/24 12:31:08;;;;;;;3.42;1.50;;;;;;;;;;5112328;28;20039;-82
2022/11/24 12:33:40;;;;;;;3.42;1.38;;;;;;;;;;5088502;28;20039;-82
2022/11/24 12:36:06;;;;;;;7.63;1.67;;;;;;;;;;5104808;28;20039;-83
2022/11/24 12:38:59;;;;;;;5.05;1.55;;;;;;;;;;5084265;28;20025;-82
2022/11/24 12:41:45;;;;;;;2.70;1.05;;;;;;;;;;5092958;28;20132;-83
2022/11/24 12:44:31;;;;;;;3.83;1.27;;;;;;;;;;5114252;28;20032;-82
2022/11/24 12:47:08;;;;;;;8.93;3.00;;;;;;;;;;5073127;28;20032;-83
2022/11/24 12:49:55;;;;;;;9.10;1.60;;;;;;;;;;5087750;28;20042;-83
2022/11/24 12:52:30;;;;;;;2.38;1.35;;;;;;;;;;5082236;28;20115;-83
2022/11/24 12:54:57;;;;;;;4.53;1.50;;;;;;;;;;5083966;28;20089;-82
2022/11/24 12:57:34;;;;;;;6.20;2.00;;;;;;;;;;5083804;28;20071;-83
2022/11/24 13:00:15;;;;;;;4.80;2.10;;;;;;;;;;5102279;28;20102;-83
2022/11/24 13:02:50;;;;;;;5.18;1.67;;;;;;;;;;5082416;28;20028;-83
2022/11/24 13:05:22;;;;;;;5.22;1.83;;;;;;;;;;5098475;28;20032;-83
2022/11/24 13:07:49;;;;;;;6.93;1.98;;;;;;;;;;5102508;28;20024;-84
2022/11/24 13:10:25;;;;;;;3.67;2.05;;;;;;;;;;5103347;28;20039;-83
2022/11/24 13:12:57;;;;;;;4.28;1.30;;;;;;;;;;5103449;28;20049;-83
2022/11/24 13:15:23;;;;;;;;;;;;;;;;;;5086688;28;20078;-82
2022/11/24 13:17:49;;;;;;;3.05;1.33;;;;;;;;;;5103115;28;20322;-82
2022/11/24 13:20:15;;;;;;;6.88;1.83;;;;;;;;;;5080998;28;20040;-83
2022/11/24 13:22:46;;;;;;;3.35;1.40;;;;;;;;;;5085650;28;20039;-83
2022/11/24 13:25:19;;;;;;;4.88;1.55;;;;;;;;;;5085395;28;20032;-83
2022/11/24 13:27:47;;;;;;;4.18;2.63;;;;;;;;;;5084661;28;20035;-83
2022/11/24 13:30:32;;;;;;;3.88;2.45;;;;;;;;;;5103479;28;20020;-83
2022/11/24 13:33:10;;;;;;;4.90;1.60;;;;;;;;;;5086202;28;20028;-83
2022/11/24 13:35:36;;;;;;;2.83;1.98;;;;;;;;;;5092180;28;20040;-85
2022/11/24 13:38:04;;;;;;;4.05;1.80;;;;;;;;;;5103969;28;20028;-83
2022/11/24 13:40:30;;;;;;;2.78;1.55;;;;;;;;;;5103405;28;20027;-83
2022/11/24 13:42:56;;;;;;;4.80;1.42;;;;;;;;;;5086375;28;20384;-82
2022/11/24 13:45:41;;;;;;;8.27;2.08;;;;;;;;;;5083014;28;20055;-83
2022/11/24 13:48:19;;;;;;;5.35;1.90;;;;;;;;;;5090151;28;20051;-83
2022/11/24 13:50:57;;;;;;;5.47;2.53;;;;;;;;;;5105262;28;20056;-83
2022/11/24 13:53:38;;;;;;;5.25;2.45;;;;;;;;;;5105640;28;20043;-83
2022/11/24 13:56:07;;;;;;;4.68;1.88;;;;;;;;;;5105433;28;20120;-83
2022/11/24 13:58:37;;;;;;;2.67;1.40;;;;;;;;;;5103327;28;20035;-83
2022/11/24 14:01:16;;;;;;;4.53;1.52;;;;;;;;;;5104743;28;20040;-84
2022/11/24 14:03:51;;;;;;;5.95;1.83;;;;;;;;;;5102869;28;20032;-84
2022/11/24 14:06:27;;;;;;;5.43;1.77;;;;;;;;;;5101299;28;20093;-84
2022/11/24 14:09:01;;;;;;;5.82;1.63;;;;;;;;;;5102459;28;20067;-83
2022/11/24 14:11:28;;;;;;;3.20;1.63;;;;;;;;;;5097331;28;20034;-81
2022/11/24 14:13:54;;;;;;;7.53;1.42;;;;;;;;;;5100396;28;20024;-82
2022/11/24 14:16:23;;;;;;;5.88;1.75;;;;;;;;;;5101586;28;20140;-83
2022/11/24 14:18:50;;;;;;;3.55;1.50;;;;;;;;;;5102251;28;20024;-82
2022/11/24 14:21:20;;;;;;;5.45;1.52;;;;;;;;;;5082521;28;20025;-81
2022/11/24 14:23:50;;;;;;;4.45;1.73;;;;;;;;;;5084165;28;20103;-82
2022/11/24 14:26:20;;;;;;;2.60;1.55;;;;;;;;;;5094908;28;20058;-82
2022/11/24 14:28:46;;;;;;;7.28;1.67;;;;;;;;;;5104867;28;20161;-82
2022/11/24 14:31:20;;;;;;;7.60;1.50;;;;;;;;;;5110397;28;20530;-83
2022/11/24 14:33:46;;;;;;;3.78;1.35;;;;;;;;;;5115213;28;20044;-82
2022/11/24 14:36:16;;;;;;;6.28;1.85;;;;;;;;;;5109510;28;20535;-82
2022/11/24 14:38:42;;;;;;;6.70;1.63;;;;;;;;;;5086781;28;20103;-84
2022/11/24 14:41:24;;;;;;;2.85;1.33;;;;;;;;;;5108100;28;20055;-84
2022/11/24 14:44:03;;;;;;;10.93;2.50;;;;;;;;;;5096644;28;20000;-83
2022/11/24 14:46:29;;;;;;;3.42;1.25;;;;;;;;;;5090402;28;20040;-84
2022/11/24 14:48:55;;;;;;;4.72;1.50;;;;;;;;;;5104650;28;20093;-83
2022/11/24 14:51:23;;;;;;;9.90;1.30;;;;;;;;;;5105360;28;20033;-83
2022/11/24 14:53:53;;;;;;;6.15;1.40;;;;;;;;;;5103045;28;20032;-83